Terminal Aerodrome Forecast
Issued by NWS

Home | Current Version | Previous Version | Graphics & Text | Print | Product List | Glossary On
Versions: 1 2 3 4 5 6 7 8 9 10 11 12 13
000
FTUS43 KBIS 302320
TAFMOT
TAF
KMOT 302320Z 0100/0124 06011G19KT P6SM SKC
     FM010300 04006KT P6SM SKC
     FM010800 34005KT P6SM SKC=

USA.gov is the U.S. government's official web portal to all federal, state and local government web resources and services.